Anchor, Mississippi
Current Conditions -  °F | °C
As of 3:35 AM on Saturday 20 Dec 2014 (Local Time) from KSTF Reporting Station
Haze Haze  
Wind Chill: 39°   Ceiling: 6500
Heat Index: 39°   Visibility: 5mi
Dew Point: 37°   Wind: 0mph
Humidity: 93%   Direction: NA
Pressure: 30.19"   Gusts: NA
Location:  33.7962°N, 89.0553°W
Report Text: KSTF 200935Z AUTO 00000KT 5SM BR BKN065 04/03 A3019 RMK AO2
Loading
Personal Weather Stations






























Interactive Weather Map New forecast layout! Learn more

10-Day Weather Forecast

Advertisements
Track Severe Weather on mobile